Old Glory, Texas
Current Conditions -  °F | °C
As of 6:58 PM on Tuesday 21 Oct 2014 (Local Time) from KDYS Reporting Station
Clear Clear  
Wind Chill: 74°   Ceiling: Unl
Heat Index: 74°   Visibility: 10mi
Dew Point: 53°   Wind: 8mph
Humidity: 47%   Direction: 140°SE
Pressure: 30.02"   Gusts: NA
Location:  33.13°N, 100.06°W
Report Text: KDYS 212358Z AUTO 14007KT 10SM CLR 24/12 A3002 RMK AO2 SLP139 T02350115 10272 20235 53003
Loading
Personal Weather Stations






























Interactive Weather Map
Tropical Storm Tracking
New forecast layout! Learn more

10-Day Weather Forecast

Advertisements
Track Severe Weather on mobile